Time;durP1;ratioP1;P1;durP2;ratioP2;P2;SDS_P1;SDS_P2;PMS_P1;PMS_P2;Temp;Humidity;BMP_temperature;BMP_pressure;BME280_temperature;BME280_humidity;BME280_pressure;Samples;Min_cycle;Max_cycle;Signal;HPM_P1;HPM_P2
2023/02/07 00:01:13;;;;;;;42.30;18.67;;;;;;;-1.31;100.00;103665.06;5007507;28;21012;-79
2023/02/07 00:04:04;;;;;;;52.22;22.63;;;;;;;-1.34;100.00;103660.81;5005428;28;20070;-79
2023/02/07 00:06:54;;;;;;;62.30;24.65;;;;;;;-1.37;100.00;103664.25;5013811;28;20043;-79
2023/02/07 00:09:46;;;;;;;73.60;28.13;;;;;;;-1.40;100.00;103668.50;5027843;28;20044;-79
2023/02/07 00:12:36;;;;;;;64.07;27.60;;;;;;;-1.41;100.00;103666.84;5022327;28;20091;-77
2023/02/07 00:15:29;;;;;;;56.40;26.75;;;;;;;-1.44;100.00;103656.66;5019433;28;20045;-79
2023/02/07 00:18:20;;;;;;;57.97;25.48;;;;;;;-1.50;100.00;103651.59;5014558;28;20036;-78
2023/02/07 00:21:13;;;;;;;54.97;25.58;;;;;;;-1.52;100.00;103659.25;5024774;28;20214;-79
2023/02/07 00:24:04;;;;;;;62.10;26.67;;;;;;;-1.57;100.00;103656.69;5028103;28;20057;-77
2023/02/07 00:26:55;;;;;;;60.55;26.67;;;;;;;-1.59;100.00;103662.66;5022669;28;20067;-78
2023/02/07 00:29:46;;;;;;;65.15;24.45;;;;;;;-1.61;100.00;103667.75;5012412;28;20117;-79
2023/02/07 00:32:38;;;;;;;50.90;21.58;;;;;;;-1.62;100.00;103667.75;5019494;28;20523;-78
2023/02/07 00:35:28;;;;;;;52.55;19.13;;;;;;;-1.65;100.00;103666.09;5009900;28;20087;-79
2023/02/07 00:38:18;;;;;;;53.63;19.73;;;;;;;-1.67;100.00;103672.03;5025025;28;20048;-79
2023/02/07 00:41:13;;;;;;;47.08;17.42;;;;;;;-1.70;100.00;103677.13;5012709;28;20196;-79
2023/02/07 00:44:05;;;;;;;45.83;16.45;;;;;;;-1.74;100.00;103671.22;5010918;28;20782;-78
2023/02/07 00:46:55;;;;;;;39.60;14.68;;;;;;;-1.78;100.00;103662.75;5014396;28;20036;-79
2023/02/07 00:49:46;;;;;;;43.40;15.10;;;;;;;-1.80;100.00;103668.69;5011413;28;20037;-80
2023/02/07 00:52:36;;;;;;;50.85;15.90;;;;;;;-1.84;100.00;103662.78;5014328;28;20037;-79
2023/02/07 00:55:26;;;;;;;43.80;16.90;;;;;;;-1.85;100.00;103662.78;5008501;28;20048;-79
2023/02/07 00:58:17;;;;;;;46.28;16.02;;;;;;;-1.89;100.00;103672.09;5018911;28;20160;-80
2023/02/07 01:01:07;;;;;;;47.00;16.90;;;;;;;-1.93;100.00;103672.97;5013235;28;20141;-79
2023/02/07 01:03:57;;;;;;;55.97;19.67;;;;;;;-1.97;100.00;103672.13;5009602;28;20053;-79
2023/02/07 01:06:48;;;;;;;61.03;19.88;;;;;;;-2.01;100.00;103678.09;5012098;28;20505;-78
2023/02/07 01:09:39;;;;;;;55.58;20.27;;;;;;;-2.04;100.00;103677.25;5008588;28;20165;-79
2023/02/07 01:12:29;;;;;;;53.33;19.13;;;;;;;-2.08;100.00;103678.94;5023940;28;20044;-79
2023/02/07 01:15:20;;;;;;;60.97;22.58;;;;;;;-2.13;100.00;103683.19;5014241;28;20390;-79
2023/02/07 01:18:12;;;;;;;61.30;22.73;;;;;;;-2.16;100.00;103684.03;5022986;28;20041;-78
2023/02/07 01:21:13;;;;;;;60.95;24.08;;;;;;;-2.20;100.00;103674.75;5019917;28;20405;-79
2023/02/07 01:24:04;;;;;;;72.95;26.63;;;;;;;-2.23;100.00;103686.59;5010876;28;20049;-79
2023/02/07 01:26:55;;;;;;;70.88;27.73;;;;;;;-2.28;100.00;103691.72;5021625;28;20044;-79
2023/02/07 01:29:46;;;;;;;78.28;28.17;;;;;;;-2.31;100.00;103684.06;5019606;28;20040;-79
2023/02/07 01:32:36;;;;;;;57.03;23.20;;;;;;;-2.32;100.00;103687.47;5004062;28;20057;-79
2023/02/07 01:35:27;;;;;;;54.03;19.10;;;;;;;-2.25;100.00;103695.94;5007972;28;20079;-79
2023/02/07 01:38:17;;;;;;;50.90;18.15;;;;;;;-2.23;100.00;103692.53;5017319;28;20060;-79
2023/02/07 01:41:09;;;;;;;61.00;19.08;;;;;;;-2.26;100.00;103687.47;5002305;28;20544;-78
2023/02/07 01:44:03;;;;;;;50.00;17.60;;;;;;;-2.28;100.00;103688.31;5005578;28;20091;-79
2023/02/07 01:46:55;;;;;;;53.42;16.60;;;;;;;-2.24;100.00;103674.72;5011418;28;20129;-79
2023/02/07 01:49:48;;;;;;;54.47;16.73;;;;;;;-2.20;100.00;103677.28;5012889;28;20104;-79
2023/02/07 01:52:40;;;;;;;56.05;17.40;;;;;;;-2.18;100.00;103669.66;5006279;28;20040;-77
2023/02/07 01:55:33;;;;;;;46.40;16.05;;;;;;;-2.23;100.00;103667.09;5010247;28;20068;-79
2023/02/07 01:58:25;;;;;;;52.47;15.68;;;;;;;-2.01;100.00;103674.69;5013496;28;20746;-80
2023/02/07 02:01:23;;;;;;;47.72;14.90;;;;;;;-2.04;100.00;103669.59;5024106;28;21035;-79
2023/02/07 02:04:13;;;;;;;40.80;15.55;;;;;;;-2.06;100.00;103672.16;5015481;28;20124;-79
2023/02/07 02:07:07;;;;;;;47.55;14.73;;;;;;;-2.10;100.00;103682.34;5008440;28;20052;-79
2023/02/07 02:09:59;;;;;;;46.30;14.48;;;;;;;-1.96;100.00;103675.50;5024609;28;20081;-79
2023/02/07 02:13:34;;;;;;;37.28;13.43;;;;;;;-1.95;100.00;103661.97;5011621;28;20110;-80
2023/02/07 02:16:33;;;;;;;36.95;13.43;;;;;;;-1.89;100.00;103673.81;5013801;28;20099;-79
2023/02/07 02:19:55;;;;;;;40.45;12.63;;;;;;;-1.97;100.00;103669.59;5009456;28;20044;-79
2023/02/07 02:23:09;;;;;;;39.05;12.93;;;;;;;-2.01;100.00;103673.00;5022712;28;20457;-80
2023/02/07 02:26:15;;;;;;;37.80;14.82;;;;;;;-2.02;100.00;103670.44;5008482;28;20047;-79
2023/02/07 02:29:17;;;;;;;38.92;13.27;;;;;;;-2.13;100.00;103669.63;5016022;28;20087;-79
2023/02/07 02:32:33;;;;;;;37.47;13.18;;;;;;;-2.12;100.00;103666.25;5018573;28;20075;-79
2023/02/07 02:35:33;;;;;;;40.72;12.63;;;;;;;-2.18;100.00;103670.50;5022972;28;20074;-80
2023/02/07 02:38:45;;;;;;;43.38;12.88;;;;;;;-2.12;100.00;103668.78;5020144;28;20063;-80
2023/02/07 02:41:47;;;;;;;34.10;12.88;;;;;;;-2.20;100.00;103673.91;5027157;28;20072;-79
2023/02/07 02:47:50;;;;;;;35.67;12.40;;;;;;;-2.28;100.00;103676.47;1387825;22;20054;-69
2023/02/07 02:50:45;;;;;;;37.30;13.68;;;;;;;-2.32;100.00;103674.75;5011141;28;20141;-69
2023/02/07 02:53:35;;;;;;;30.38;11.95;;;;;;;-2.38;100.00;103670.53;5016381;28;20040;-68
2023/02/07 02:56:48;;;;;;;44.53;14.75;;;;;;;-2.23;100.00;103666.28;5019406;28;20044;-69
2023/02/07 02:59:26;;;;;;;39.88;13.82;;;;;;;-2.13;100.00;103664.53;4981583;28;20038;-69
2023/02/07 03:02:12;;;;;;;37.70;12.65;;;;;;;-2.18;100.00;103662.88;4981132;28;20149;-68
2023/02/07 03:05:07;;;;;;;37.05;12.73;;;;;;;-2.28;100.00;103665.41;5005665;28;20543;-69
2023/02/07 03:07:42;;;;;;;39.67;13.30;;;;;;;-2.33;100.00;103664.59;4999363;28;20076;-69
2023/02/07 03:10:28;;;;;;;36.65;13.38;;;;;;;-2.39;100.00;103662.91;4999660;28;20499;-69
2023/02/07 03:13:07;;;;;;;32.83;11.90;;;;;;;-2.44;100.00;103665.44;4970306;28;20033;-69
2023/02/07 03:15:42;;;;;;;32.70;12.35;;;;;;;-2.47;100.00;103664.59;4978576;28;20038;-71
2023/02/07 03:18:18;;;;;;;30.25;12.13;;;;;;;-2.50;100.00;103652.75;4983144;28;20041;-71
2023/02/07 03:20:55;;;;;;;31.30;12.02;;;;;;;-2.51;100.00;103653.59;4987593;28;20029;-71
2023/02/07 03:23:22;;;;;;;32.35;12.05;;;;;;;-2.54;100.00;103646.00;4987288;28;20623;-71
2023/02/07 03:25:50;;;;;;;29.92;11.90;;;;;;;-2.58;100.00;103646.81;4983289;28;20034;-70
2023/02/07 03:28:20;;;;;;;33.28;12.80;;;;;;;-2.60;100.00;103645.97;4991010;28;20100;-70
2023/02/07 03:30:50;;;;;;;32.53;11.65;;;;;;;-2.64;100.00;103649.38;4998144;28;20038;-71
2023/02/07 03:33:17;;;;;;;31.17;13.35;;;;;;;-2.66;100.00;103651.91;4996680;28;20108;-71
2023/02/07 03:35:55;;;;;;;31.92;12.38;;;;;;;-2.68;100.00;103650.22;5004462;28;20634;-70
2023/02/07 03:38:21;;;;;;;27.67;11.93;;;;;;;-2.71;100.00;103653.63;5004558;28;20034;-69
2023/02/07 03:40:51;;;;;;;33.33;11.35;;;;;;;-2.75;100.00;103642.63;4984603;28;20037;-71
2023/02/07 03:43:24;;;;;;;28.98;12.70;;;;;;;-2.78;100.00;103644.31;5001054;28;20511;-70
2023/02/07 03:45:49;;;;;;;;;;;;;;;-2.83;100.00;103646.81;4999521;28;21017;-71
2023/02/07 03:48:15;;;;;;;27.73;11.07;;;;;;;-2.88;100.00;103647.66;4987405;28;19921;-69
2023/02/07 03:50:40;;;;;;;28.05;11.32;;;;;;;-2.92;100.00;103649.34;5008846;28;20034;-69
2023/02/07 03:53:06;;;;;;;34.78;12.55;;;;;;;-2.96;100.00;103657.81;4990660;28;20031;-69
2023/02/07 03:55:32;;;;;;;32.95;11.90;;;;;;;-3.00;100.00;103654.44;4986356;28;20040;-69
2023/02/07 03:57:57;;;;;;;36.45;12.32;;;;;;;-3.01;100.00;103649.38;5004313;28;20461;-69
2023/02/07 04:00:23;;;;;;;28.38;11.85;;;;;;;-3.05;100.00;103657.81;5004483;28;20042;-69
2023/02/07 04:02:48;;;;;;;37.53;12.90;;;;;;;-3.04;100.00;103655.28;5000268;28;20037;-69
2023/02/07 04:05:14;;;;;;;39.70;12.95;;;;;;;-3.08;100.00;103653.59;4988057;28;20088;-69
2023/02/07 04:07:39;;;;;;;33.10;11.43;;;;;;;-3.11;100.00;103660.34;4976287;28;20034;-68
2023/02/07 04:10:05;;;;;;;31.48;12.20;;;;;;;-3.14;100.00;103656.13;4989251;28;20420;-69
2023/02/07 04:12:33;;;;;;;31.70;12.15;;;;;;;-3.18;100.00;103652.72;4988895;28;20113;-69
2023/02/07 04:15:00;;;;;;;26.92;11.65;;;;;;;-3.19;100.00;103647.66;4987979;28;20084;-69
2023/02/07 04:17:26;;;;;;;35.42;11.55;;;;;;;-3.20;100.00;103653.56;4987209;28;20480;-69
2023/02/07 04:19:52;;;;;;;32.20;12.25;;;;;;;-3.21;100.00;103647.63;4990383;28;20033;-69
2023/02/07 04:22:18;;;;;;;40.22;12.80;;;;;;;-3.22;100.00;103645.97;4993601;28;20037;-68
2023/02/07 04:24:43;;;;;;;34.47;12.00;;;;;;;-3.24;100.00;103646.78;4986297;28;20031;-69
2023/02/07 04:27:09;;;;;;;28.77;11.27;;;;;;;-3.27;100.00;103640.03;4974523;28;20030;-69
2023/02/07 04:29:34;;;;;;;32.13;11.65;;;;;;;-3.30;100.00;103642.53;5003998;28;20082;-69
2023/02/07 04:32:00;;;;;;;27.83;10.60;;;;;;;-3.34;100.00;103636.59;5003980;28;20934;-69
2023/02/07 04:34:25;;;;;;;31.63;11.45;;;;;;;-3.35;100.00;103640.00;4988082;28;20029;-69
2023/02/07 04:36:51;;;;;;;41.42;13.50;;;;;;;-3.36;100.00;103645.06;4991334;28;20033;-69
2023/02/07 04:39:16;;;;;;;29.73;12.02;;;;;;;-3.32;100.00;103629.00;5005347;28;20022;-69
2023/02/07 04:41:42;;;;;;;36.28;12.45;;;;;;;-3.24;100.00;103627.34;4990499;28;20034;-69
2023/02/07 04:44:07;;;;;;;35.55;13.00;;;;;;;-3.11;100.00;103623.09;4976882;28;20046;-68
2023/02/07 04:46:33;;;;;;;35.58;12.23;;;;;;;-2.95;100.00;103618.91;4988179;28;20072;-68
2023/02/07 04:48:58;;;;;;;31.15;11.18;;;;;;;-2.93;100.00;103617.22;5004012;28;20037;-69
2023/02/07 04:51:24;;;;;;;29.67;11.52;;;;;;;-2.92;100.00;103606.19;4988640;28;20034;-69
2023/02/07 04:53:49;;;;;;;38.55;12.98;;;;;;;-2.83;100.00;103607.88;4989153;28;20549;-68
2023/02/07 04:56:15;;;;;;;39.35;13.13;;;;;;;-2.91;100.00;103600.28;4987564;28;20400;-69
2023/02/07 04:58:42;;;;;;;33.15;12.32;;;;;;;-2.96;100.00;103601.97;4989793;28;20029;-69
2023/02/07 05:01:07;;;;;;;30.00;11.98;;;;;;;-3.07;100.00;103604.50;4988468;28;20054;-69
2023/02/07 05:03:33;;;;;;;36.25;12.80;;;;;;;-3.14;100.00;103600.28;5004463;28;20050;-69
2023/02/07 05:05:58;;;;;;;33.13;12.77;;;;;;;-3.21;100.00;103608.72;4986514;28;20034;-69
2023/02/07 05:08:24;;;;;;;36.95;12.93;;;;;;;-3.27;100.00;103619.72;4989688;28;20038;-69
2023/02/07 05:10:54;;;;;;;30.42;12.80;;;;;;;-3.32;100.00;103619.69;4985293;28;20523;-69
2023/02/07 05:13:21;;;;;;;34.67;12.65;;;;;;;-3.33;100.00;103619.72;4987743;28;21778;-69
2023/02/07 05:15:46;;;;;;;31.60;12.68;;;;;;;-3.37;100.00;103616.31;4999771;28;20034;-69
2023/02/07 05:18:12;;;;;;;36.60;13.07;;;;;;;-3.39;100.00;103619.69;4985011;28;20403;-69
2023/02/07 05:20:37;;;;;;;39.58;13.23;;;;;;;-3.41;100.00;103618.84;4988174;28;20070;-69
2023/02/07 05:23:03;;;;;;;35.55;13.90;;;;;;;-3.43;100.00;103615.44;4972578;28;20037;-68
2023/02/07 05:25:28;;;;;;;35.13;12.82;;;;;;;-3.46;100.00;103623.91;5004210;28;20037;-69
2023/02/07 05:27:54;;;;;;;34.20;13.05;;;;;;;-3.49;100.00;103630.66;4985615;28;20041;-69
2023/02/07 05:30:19;;;;;;;39.30;14.18;;;;;;;-3.51;100.00;103633.19;4988561;28;20060;-69
2023/02/07 05:33:03;;;;;;;33.83;14.13;;;;;;;-3.53;100.00;103639.94;5005764;28;20491;-68
2023/02/07 05:35:33;;;;;;;33.05;14.55;;;;;;;-3.56;100.00;103633.19;4988366;28;20041;-68
2023/02/07 05:37:59;;;;;;;32.95;14.48;;;;;;;-3.59;100.00;103635.72;4989628;28;20096;-69
2023/02/07 05:40:24;;;;;;;39.47;14.23;;;;;;;-3.58;100.00;103646.69;4983829;28;20034;-69
2023/02/07 05:42:50;;;;;;;35.13;15.57;;;;;;;-3.61;100.00;103647.53;4981712;28;20851;-68
2023/02/07 05:45:15;;;;;;;32.85;15.43;;;;;;;-3.63;100.00;103648.38;5005650;28;20495;-68
2023/02/07 05:47:41;;;;;;;43.90;17.23;;;;;;;-3.64;100.00;103647.53;5000215;28;20034;-69
2023/02/07 05:50:07;;;;;;;45.28;17.67;;;;;;;-3.67;100.00;103656.81;5004807;28;20068;-68
2023/02/07 05:52:32;;;;;;;45.15;17.40;;;;;;;-3.68;100.00;103653.44;4987169;28;20041;-68
2023/02/07 05:54:58;;;;;;;43.97;18.60;;;;;;;-3.69;100.00;103659.38;4985879;28;20026;-69
2023/02/07 05:57:23;;;;;;;52.20;20.10;;;;;;;-3.72;100.00;103660.19;4986594;28;20045;-68
2023/02/07 05:59:49;;;;;;;48.70;18.63;;;;;;;-3.73;100.00;103665.25;4997886;28;20021;-69
2023/02/07 06:02:14;;;;;;;44.42;18.02;;;;;;;-3.73;100.00;103660.16;4988665;28;20034;-68
2023/02/07 06:04:40;;;;;;;46.53;18.95;;;;;;;-3.76;100.00;103658.47;5003189;28;20033;-68
2023/02/07 06:07:05;;;;;;;52.58;19.33;;;;;;;-3.77;100.00;103672.00;5008063;28;20041;-69
2023/02/07 06:09:31;;;;;;;47.53;17.83;;;;;;;-3.79;100.00;103668.59;4989038;28;20034;-68
2023/02/07 06:11:56;;;;;;;45.80;16.92;;;;;;;-3.79;100.00;103670.28;5001271;28;20041;-69
2023/02/07 06:14:22;;;;;;;41.50;17.15;;;;;;;-3.80;100.00;103672.00;5001824;28;20061;-69
2023/02/07 06:16:48;;;;;;;39.53;16.35;;;;;;;-3.82;100.00;103673.66;5003403;28;20036;-68
2023/02/07 06:19:14;;;;;;;46.15;18.40;;;;;;;-3.84;100.00;103669.41;4990845;28;20030;-68
2023/02/07 06:21:40;;;;;;;51.25;17.25;;;;;;;-3.90;100.00;103675.31;4986270;28;20046;-68
2023/02/07 06:24:07;;;;;;;40.80;17.58;;;;;;;-3.94;100.00;103669.41;5008142;28;20042;-68
2023/02/07 06:26:32;;;;;;;39.60;16.73;;;;;;;-3.95;100.00;103682.06;4998759;28;20641;-69
2023/02/07 06:28:58;;;;;;;41.15;16.15;;;;;;;-3.97;100.00;103669.38;4988165;28;20045;-68
2023/02/07 06:31:24;;;;;;;42.83;17.00;;;;;;;-3.98;100.00;103677.78;4999591;28;20033;-68
2023/02/07 06:33:49;;;;;;;49.72;17.67;;;;;;;-3.99;100.00;103681.19;5004744;28;20414;-68
2023/02/07 06:36:15;;;;;;;43.90;16.25;;;;;;;-4.00;100.00;103676.94;4996091;28;20064;-68
2023/02/07 06:38:40;;;;;;;41.55;15.23;;;;;;;-4.01;100.00;103682.00;4986297;28;20046;-68
2023/02/07 06:41:09;;;;;;;37.63;16.85;;;;;;;-4.02;100.00;103691.31;4986123;28;20030;-68
2023/02/07 06:43:38;;;;;;;37.72;15.00;;;;;;;-4.02;100.00;103695.53;4984246;28;20483;-68
2023/02/07 06:46:04;;;;;;;35.75;14.13;;;;;;;-4.03;100.00;103694.69;4987657;28;20436;-69
2023/02/07 06:48:29;;;;;;;41.63;15.43;;;;;;;-4.04;100.00;103697.22;4996452;28;20117;-68
2023/02/07 06:50:55;;;;;;;39.55;15.07;;;;;;;-4.05;100.00;103698.03;4998988;28;20603;-68
2023/02/07 06:53:21;;;;;;;38.53;14.35;;;;;;;-4.07;100.00;103705.63;4999430;28;20041;-68
2023/02/07 06:55:46;;;;;;;39.22;14.80;;;;;;;-4.07;100.00;103709.84;4999134;28;20030;-68
2023/02/07 06:58:12;;;;;;;39.67;15.27;;;;;;;-4.08;100.00;103706.50;4987805;28;20484;-68
2023/02/07 07:00:38;;;;;;;42.00;15.32;;;;;;;-4.09;100.00;103716.59;4985703;28;20038;-68
2023/02/07 07:03:03;;;;;;;42.75;15.82;;;;;;;-4.12;100.00;103714.91;4986498;28;20041;-68
2023/02/07 07:05:29;;;;;;;38.40;15.23;;;;;;;-4.12;100.00;103714.91;4972922;28;20034;-68
2023/02/07 07:07:56;;;;;;;38.13;15.45;;;;;;;-4.13;100.00;103715.75;4982283;28;20044;-68
2023/02/07 07:10:22;;;;;;;38.67;15.38;;;;;;;-4.14;100.00;103714.06;4996505;28;20027;-68
2023/02/07 07:12:47;;;;;;;36.60;15.38;;;;;;;-4.15;100.00;103717.41;4979277;28;20113;-68
2023/02/07 07:15:13;;;;;;;44.65;16.00;;;;;;;-4.15;100.00;103715.72;4998526;28;20061;-68
2023/02/07 07:17:39;;;;;;;35.50;14.90;;;;;;;-4.16;100.00;103714.03;4984037;28;20122;-68
2023/02/07 07:20:06;;;;;;;43.58;14.38;;;;;;;-4.18;100.00;103723.31;4985535;28;20503;-68
2023/02/07 07:22:32;;;;;;;36.08;15.05;;;;;;;-4.21;100.00;103719.91;5003016;28;20093;-68
2023/02/07 07:24:58;;;;;;;41.50;16.20;;;;;;;-4.20;100.00;103722.47;5001804;28;20026;-69
2023/02/07 07:27:23;;;;;;;33.83;13.35;;;;;;;-4.23;100.00;103722.44;5000118;28;20484;-68
2023/02/07 07:29:49;;;;;;;29.23;13.95;;;;;;;-4.24;100.00;103720.72;4992317;28;20486;-68
2023/02/07 07:32:15;;;;;;;34.22;13.05;;;;;;;-4.23;100.00;103726.66;4994417;28;20029;-69
2023/02/07 07:34:40;;;;;;;37.30;13.88;;;;;;;-4.23;100.00;103732.56;5002789;28;20044;-68
2023/02/07 07:37:06;;;;;;;33.58;14.05;;;;;;;-4.20;100.00;103737.69;5002504;28;20143;-68
2023/02/07 07:39:31;;;;;;;35.35;13.98;;;;;;;-4.18;100.00;103747.81;4974529;28;20025;-68
2023/02/07 07:41:57;;;;;;;35.53;14.68;;;;;;;-4.17;100.00;103742.75;4988592;28;20067;-68
2023/02/07 07:44:48;;;;;;;36.10;14.75;;;;;;;-4.16;100.00;103748.69;5005982;28;20400;-69
2023/02/07 07:47:14;;;;;;;40.40;15.13;;;;;;;-4.17;100.00;103757.13;5004975;28;20034;-68
2023/02/07 07:49:40;;;;;;;40.47;15.07;;;;;;;-4.17;100.00;103752.88;4988070;28;20034;-68
2023/02/07 07:52:05;;;;;;;33.85;15.27;;;;;;;-4.15;100.00;103753.75;5001456;28;20037;-69
2023/02/07 07:54:31;;;;;;;39.22;14.85;;;;;;;-4.14;100.00;103758.00;5003544;28;20034;-69
2023/02/07 07:56:56;;;;;;;37.58;14.68;;;;;;;-4.13;100.00;103762.19;4992422;28;22659;-68
2023/02/07 07:59:22;;;;;;;37.83;14.40;;;;;;;-4.08;100.00;103757.19;4985927;28;20066;-68
2023/02/07 08:01:47;;;;;;;33.58;13.82;;;;;;;-4.05;100.00;103754.69;5001169;28;20025;-68
2023/02/07 08:04:13;;;;;;;31.80;12.70;;;;;;;-4.01;100.00;103760.59;5005178;28;20036;-68
2023/02/07 08:06:38;;;;;;;31.40;13.25;;;;;;;-3.96;100.00;103762.31;5007307;28;20556;-68
2023/02/07 08:09:04;;;;;;;33.53;13.65;;;;;;;-3.94;100.00;103760.69;4997386;28;20038;-69
2023/02/07 08:11:29;;;;;;;35.67;14.52;;;;;;;-3.92;100.00;103769.13;5001859;28;20034;-68
2023/02/07 08:13:56;;;;;;;34.53;13.50;;;;;;;-3.89;100.00;103768.31;5006280;28;20080;-68
2023/02/07 08:16:21;;;;;;;39.55;13.77;;;;;;;-3.82;100.00;103759.91;5001063;28;20017;-68
2023/02/07 08:18:46;;;;;;;34.38;13.15;;;;;;;-3.78;100.00;103756.53;4985930;28;20034;-68
2023/02/07 08:21:12;;;;;;;34.15;14.07;;;;;;;-3.74;100.00;103762.47;4998760;28;20037;-68
2023/02/07 08:23:37;;;;;;;33.40;14.20;;;;;;;-3.67;100.00;103760.81;5006955;28;20045;-68
2023/02/07 08:26:03;;;;;;;32.08;13.40;;;;;;;-3.64;100.00;103764.22;5007210;28;20495;-69
2023/02/07 08:28:30;;;;;;;31.70;13.73;;;;;;;-3.56;100.00;103760.03;4986877;28;20061;-68
2023/02/07 08:31:04;;;;;;;36.08;13.60;;;;;;;-3.52;100.00;103763.44;5005316;28;20077;-69
2023/02/07 08:33:29;;;;;;;32.58;16.05;;;;;;;-3.46;100.00;103767.72;4975541;28;20468;-68
2023/02/07 08:35:55;;;;;;;42.15;18.35;;;;;;;-3.19;100.00;103764.41;4999023;28;20037;-68
2023/02/07 08:38:21;;;;;;;42.35;17.30;;;;;;;-2.78;100.00;103753.53;4997919;28;20074;-68
2023/02/07 08:40:46;;;;;;;39.45;15.90;;;;;;;-2.26;100.00;103758.66;5000759;28;20024;-69
2023/02/07 08:43:13;;;;;;;38.30;15.23;;;;;;;-1.70;100.00;103756.84;5003479;28;20026;-68
2023/02/07 08:45:40;;;;;;;35.78;14.90;;;;;;;-1.15;100.00;103758.34;4987585;28;20034;-69
2023/02/07 08:48:06;;;;;;;36.15;13.55;;;;;;;-0.63;100.00;103745.28;5001908;28;20768;-69
2023/02/07 08:50:31;;;;;;;38.38;12.98;;;;;;;-0.33;100.00;103748.44;5005606;28;20053;-69
2023/02/07 08:52:57;;;;;;;31.38;12.50;;;;;;;0.09;100.00;103740.41;5006767;28;20637;-69
2023/02/07 08:55:22;;;;;;;25.77;11.35;;;;;;;0.55;97.48;103739.91;5000907;28;20042;-69
2023/02/07 08:57:48;;;;;;;27.17;11.27;;;;;;;0.86;93.91;103734.38;4995032;28;20041;-69
2023/02/07 09:00:14;;;;;;;28.50;10.45;;;;;;;1.09;91.72;103740.03;5004360;28;20100;-69
2023/02/07 09:02:41;;;;;;;24.15;10.35;;;;;;;1.41;90.62;103735.25;4986381;28;20036;-69
2023/02/07 09:05:07;;;;;;;19.35;9.65;;;;;;;1.65;89.27;103742.53;4985582;28;20041;-68
2023/02/07 09:07:33;;;;;;;20.17;8.43;;;;;;;1.80;87.44;103748.25;4987153;28;20046;-69
2023/02/07 09:09:58;;;;;;;16.30;7.85;;;;;;;1.84;86.05;103740.50;4989095;28;20033;-70
2023/02/07 09:12:24;;;;;;;18.77;8.18;;;;;;;2.05;85.83;103744.38;4997164;28;20049;-70
2023/02/07 09:14:49;;;;;;;16.73;7.25;;;;;;;1.97;84.44;103745.41;5010445;28;20048;-70
2023/02/07 09:18:32;;;;;;;13.93;8.15;;;;;;;1.93;83.68;103740.31;5033202;28;21008;-70
2023/02/07 09:20:57;;;;;;;14.95;6.90;;;;;;;1.68;83.40;103729.69;5035633;28;20102;-71
2023/02/07 09:23:23;;;;;;;17.00;8.18;;;;;;;1.53;84.73;103729.97;5015746;28;20038;-71
2023/02/07 09:25:52;;;;;;;12.73;7.28;;;;;;;1.33;86.58;103730.28;5022336;28;20055;-71
2023/02/07 09:30:46;;;;;;;15.07;7.20;;;;;;;0.92;88.15;103735.16;5088943;27;21215;-71
2023/02/07 09:33:13;;;;;;;17.80;7.22;;;;;;;0.66;89.11;103732.94;5078784;28;20038;-71
2023/02/07 09:35:40;;;;;;;12.60;7.20;;;;;;;0.44;91.63;103731.53;5030292;28;109137;-71
2023/02/07 09:38:10;;;;;;;13.43;7.03;;;;;;;0.32;92.09;103737.59;5072697;28;20044;-71
2023/02/07 09:40:36;;;;;;;14.07;6.90;;;;;;;0.36;92.35;103732.44;5058047;28;20666;-71
2023/02/07 09:43:29;;;;;;;14.40;7.22;;;;;;;0.40;93.21;103730.72;5089178;28;20106;-71
2023/02/07 09:45:58;;;;;;;12.88;7.25;;;;;;;0.29;93.85;103733.38;5076999;28;20597;-71
2023/02/07 09:48:53;;;;;;;14.50;7.68;;;;;;;0.32;93.58;103741.00;5075999;28;20440;-71
2023/02/07 09:51:22;;;;;;;14.52;7.88;;;;;;;0.24;93.77;103736.84;5055927;28;20037;-71
2023/02/07 09:54:16;;;;;;;15.60;7.07;;;;;;;0.20;95.12;103736.03;5036271;28;20064;-71
2023/02/07 09:56:42;;;;;;;12.88;6.97;;;;;;;0.32;95.09;103735.03;5023379;28;20672;-71
2023/02/07 09:59:17;;;;;;;15.30;7.15;;;;;;;0.36;94.37;103729.91;5035286;28;20034;-71
2023/02/07 10:01:47;;;;;;;11.73;6.03;;;;;;;0.49;93.02;103720.38;5058235;28;20064;-70
2023/02/07 10:04:21;;;;;;;13.45;6.88;;;;;;;0.49;91.61;103724.63;5073082;28;20029;-71
2023/02/07 10:06:51;;;;;;;12.82;6.70;;;;;;;0.50;91.98;103724.63;5037447;28;20068;-71
2023/02/07 10:09:20;;;;;;;9.35;6.15;;;;;;;0.56;91.36;103728.78;5041833;28;21158;-73
2023/02/07 10:11:57;;;;;;;13.15;6.93;;;;;;;0.77;88.58;103723.44;5049045;28;20033;-72
2023/02/07 10:14:58;;;;;;;15.77;6.25;;;;;;;0.69;86.32;103724.38;5070653;28;20378;-72
2023/02/07 10:17:45;;;;;;;12.32;6.57;;;;;;;0.58;86.52;103725.38;5053513;28;20037;-73
2023/02/07 10:20:31;;;;;;;11.48;7.05;;;;;;;0.69;88.28;103727.78;5060444;28;20048;-73
2023/02/07 10:23:16;;;;;;;11.32;6.60;;;;;;;0.63;89.40;103725.31;5054528;28;20041;-72
2023/02/07 10:26:21;;;;;;;10.68;6.82;;;;;;;0.70;89.02;103726.09;5049365;28;20037;-73
2023/02/07 10:29:08;;;;;;;11.25;6.25;;;;;;;0.75;86.03;103722.59;5042233;28;20032;-73
2023/02/07 10:31:38;;;;;;;11.50;7.00;;;;;;;0.70;85.85;103716.69;5058920;28;20087;-73
2023/02/07 10:34:26;;;;;;;10.63;6.03;;;;;;;0.73;85.30;103715.81;5076226;28;20037;-72
2023/02/07 10:36:56;;;;;;;13.48;7.35;;;;;;;0.77;86.28;103718.31;5059171;28;20033;-72
2023/02/07 10:39:32;;;;;;;11.10;6.22;;;;;;;0.79;85.75;103720.81;5076109;28;20387;-73
2023/02/07 10:41:58;;;;;;;12.55;6.88;;;;;;;0.74;85.64;103714.97;5045624;28;20025;-72
2023/02/07 10:44:24;;;;;;;10.68;5.88;;;;;;;0.84;85.01;103713.94;5048249;28;20033;-73
2023/02/07 10:46:59;;;;;;;15.20;7.40;;;;;;;0.77;85.26;103723.44;5045613;28;20579;-72
2023/02/07 10:49:30;;;;;;;14.20;7.78;;;;;;;0.84;85.72;103726.72;5039336;28;20028;-73
2023/02/07 10:52:01;;;;;;;14.05;7.65;;;;;;;0.93;85.71;103718.94;5044873;28;20033;-73
2023/02/07 10:54:27;;;;;;;13.75;7.18;;;;;;;0.94;85.35;103718.09;5045689;28;20098;-73
2023/02/07 10:57:00;;;;;;;14.00;7.50;;;;;;;0.92;84.86;103713.84;5046523;28;20044;-72
2023/02/07 11:00:01;;;;;;;13.80;7.07;;;;;;;1.10;85.08;103707.63;5028347;28;20091;-72
2023/02/07 11:02:30;;;;;;;12.18;6.80;;;;;;;1.06;86.93;103717.03;5022938;28;20377;-72
2023/02/07 11:05:01;;;;;;;12.18;6.93;;;;;;;1.15;86.85;103711.81;5044287;28;20491;-73
2023/02/07 11:07:27;;;;;;;15.18;7.28;;;;;;;1.25;85.89;103717.59;5044989;28;20061;-72
2023/02/07 11:10:24;;;;;;;12.60;6.78;;;;;;;1.37;83.67;103708.88;5045986;28;20029;-72
2023/02/07 11:12:55;;;;;;;11.90;7.18;;;;;;;1.40;83.04;103708.84;5035601;28;20045;-73
2023/02/07 11:15:25;;;;;;;11.70;6.35;;;;;;;1.33;82.23;103707.25;5042826;28;20043;-72
2023/02/07 11:18:00;;;;;;;11.15;6.68;;;;;;;1.22;79.76;103704.03;5057140;28;20033;-72
2023/02/07 11:20:39;;;;;;;13.63;5.57;;;;;;;1.10;80.22;103699.97;5063106;28;20025;-72
2023/02/07 11:23:11;;;;;;;13.48;6.50;;;;;;;1.28;78.09;103692.00;5045543;28;20095;-72
2023/02/07 11:25:46;;;;;;;13.50;6.00;;;;;;;1.38;78.42;103696.97;5046081;28;20045;-73
2023/02/07 11:28:21;;;;;;;11.57;6.13;;;;;;;1.60;74.57;103695.75;5041680;28;20398;-73
2023/02/07 11:30:56;;;;;;;13.07;6.45;;;;;;;1.46;74.20;103697.69;5046832;28;20041;-72
2023/02/07 11:33:26;;;;;;;12.20;6.70;;;;;;;1.47;74.30;103695.09;5040634;28;20033;-72
2023/02/07 11:36:24;;;;;;;12.25;6.32;;;;;;;1.66;73.59;103700.75;5041438;28;20040;-73
2023/02/07 11:38:55;;;;;;;15.02;6.78;;;;;;;1.54;75.78;103694.13;5042149;28;20115;-73
2023/02/07 11:41:24;;;;;;;14.43;7.05;;;;;;;1.64;78.59;103692.25;5045399;28;20033;-72
2023/02/07 11:44:00;;;;;;;12.00;6.78;;;;;;;1.62;79.44;103690.56;4971413;28;20601;-73
2023/02/07 11:46:34;;;;;;;10.55;5.65;;;;;;;1.69;70.91;103687.03;5060268;28;20037;-73
2023/02/07 11:49:00;;;;;;;11.40;5.45;;;;;;;1.65;70.34;103688.81;5044674;28;20057;-72